Time;durP1;ratioP1;P1;durP2;ratioP2;P2;SDS_P1;SDS_P2;PMS_P1;PMS_P2;Temp;Humidity;BMP_temperature;BMP_pressure;BME280_temperature;BME280_humidity;BME280_pressure;Samples;Min_cycle;Max_cycle;Signal;HPM_P1;HPM_P2
2021/03/31 00:00:20;;;;;;;23.67;12.98;;;;;;;9.81;54.95;101044.16;5024202;28;20030;-71
2021/03/31 00:02:45;;;;;;;22.30;12.63;;;;;;;9.73;55.16;101055.38;5029338;28;20033;-74
2021/03/31 00:05:11;;;;;;;24.10;13.50;;;;;;;9.58;55.76;101052.16;5023444;28;20100;-72
2021/03/31 00:07:37;;;;;;;22.52;13.00;;;;;;;9.58;56.01;101046.88;5024054;28;20093;-70
2021/03/31 00:10:38;;;;;;;23.70;13.95;;;;;;;9.76;55.84;101049.00;5024095;28;20109;-70
2021/03/31 00:13:04;;;;;;;20.55;13.00;;;;;;;9.71;56.67;101041.44;5025305;28;20038;-67
2021/03/31 00:15:31;;;;;;;23.35;13.70;;;;;;;9.57;57.40;101045.19;5024683;28;20022;-71
2021/03/31 00:17:56;;;;;;;28.85;14.80;;;;;;;9.67;57.10;101037.34;5026147;28;20021;-71
2021/03/31 00:20:22;;;;;;;28.58;14.45;;;;;;;9.63;58.14;101049.16;5022978;28;20097;-65
2021/03/31 00:22:48;;;;;;;27.17;14.23;;;;;;;9.59;58.09;101048.56;5026093;28;20119;-71
2021/03/31 00:25:14;;;;;;;26.40;14.82;;;;;;;9.51;59.08;101056.25;5023145;28;20316;-70
2021/03/31 00:27:41;;;;;;;29.65;16.73;;;;;;;9.50;59.52;101051.09;5024183;28;20033;-65
2021/03/31 00:30:09;;;;;;;29.27;16.80;;;;;;;9.40;59.82;101048.34;5023056;28;20233;-66
2021/03/31 00:32:35;;;;;;;31.25;17.33;;;;;;;9.77;58.37;101038.28;5023038;28;20036;-71
2021/03/31 00:35:00;;;;;;;30.65;17.88;;;;;;;9.99;57.89;101041.81;5024251;28;20050;-70
2021/03/31 00:37:26;;;;;;;33.00;17.42;;;;;;;9.98;57.39;101033.03;5022452;28;20033;-72
2021/03/31 00:39:51;;;;;;;41.90;19.63;;;;;;;10.09;57.10;101029.50;5022985;28;20189;-66
2021/03/31 00:42:17;;;;;;;28.35;16.20;;;;;;;10.35;56.79;101028.19;5027109;28;20025;-71
2021/03/31 00:44:42;;;;;;;32.17;16.90;;;;;;;10.32;56.59;101024.97;5023157;28;20033;-66
2021/03/31 00:47:08;;;;;;;35.42;18.25;;;;;;;10.09;57.13;101030.34;5038281;28;20096;-71
2021/03/31 00:49:33;;;;;;;43.47;20.10;;;;;;;10.14;57.25;101027.31;5042102;28;20038;-71
2021/03/31 00:52:00;;;;;;;123.15;34.38;;;;;;;10.42;56.30;101029.38;5023502;28;20363;-66
2021/03/31 00:54:25;;;;;;;41.92;20.23;;;;;;;10.66;55.70;101031.75;5024015;28;20038;-71
2021/03/31 00:56:51;;;;;;;32.33;16.17;;;;;;;10.72;55.29;101022.44;5023368;28;20083;-66
2021/03/31 00:59:16;;;;;;;31.88;17.15;;;;;;;10.70;55.51;101027.88;5023111;28;20034;-71
2021/03/31 01:01:43;;;;;;;34.90;19.08;;;;;;;10.72;54.99;101030.38;5021360;28;20101;-66
2021/03/31 01:04:08;;;;;;;34.80;18.08;;;;;;;10.43;55.86;101025.75;5023134;28;20072;-68
2021/03/31 01:06:33;;;;;;;45.10;18.58;;;;;;;10.42;55.96;101023.25;5021878;28;20037;-71
2021/03/31 01:08:59;;;;;;;28.15;16.83;;;;;;;10.29;56.34;101017.28;5022373;28;20067;-71
2021/03/31 01:11:40;;;;;;;28.58;16.20;;;;;;;10.31;55.89;101021.47;5023519;28;20336;-71
2021/03/31 01:14:16;;;;;;;31.02;16.45;;;;;;;10.49;54.54;101024.41;5024193;28;20140;-71
2021/03/31 01:16:56;;;;;;;29.05;17.48;;;;;;;10.44;55.13;101013.34;5022338;28;20429;-66
2021/03/31 01:19:46;;;;;;;27.98;16.35;;;;;;;10.44;55.33;101016.00;5022347;28;20042;-66
2021/03/31 01:22:39;;;;;;;29.25;16.70;;;;;;;10.51;54.50;101023.31;5023215;28;20083;-70
2021/03/31 01:25:13;;;;;;;132.90;36.25;;;;;;;10.26;55.38;101018.38;5023388;28;20332;-73
2021/03/31 01:28:00;;;;;;;39.05;19.02;;;;;;;10.16;55.71;101012.13;5023590;28;20034;-68
2021/03/31 01:30:35;;;;;;;140.65;36.97;;;;;;;10.40;54.88;101015.44;5023190;28;20615;-71
2021/03/31 01:33:19;;;;;;;;;;;;;;;10.40;55.05;101027.78;5026718;28;20097;-74
2021/03/31 01:35:44;;;;;;;40.03;18.08;;;;;;;10.43;54.22;101019.63;5023234;28;19944;-72
2021/03/31 01:38:12;;;;;;;49.50;20.20;;;;;;;10.26;54.54;101021.03;5021962;28;20334;-66
2021/03/31 01:40:44;;;;;;;28.30;16.35;;;;;;;10.19;54.98;101025.94;5021544;28;20022;-66
2021/03/31 01:43:12;;;;;;;109.80;34.33;;;;;;;10.13;55.67;101026.47;5023214;28;20316;-71
2021/03/31 01:45:40;;;;;;;110.22;33.63;;;;;;;10.04;56.13;101019.28;5023695;28;20026;-74
2021/03/31 01:48:18;;;;;;;103.97;34.20;;;;;;;9.83;57.80;101019.25;5021591;28;20034;-73
2021/03/31 01:50:48;;;;;;;59.55;25.52;;;;;;;9.69;58.41;101026.66;5021613;28;20030;-73
2021/03/31 01:53:16;;;;;;;40.00;21.25;;;;;;;9.89;57.64;101025.84;5022105;28;20041;-68
2021/03/31 01:55:42;;;;;;;45.40;22.55;;;;;;;9.81;58.45;101023.84;5021884;28;20515;-74
2021/03/31 01:58:09;;;;;;;39.28;20.40;;;;;;;9.76;58.43;101022.53;5021281;28;20228;-72
2021/03/31 02:00:34;;;;;;;39.83;21.17;;;;;;;9.93;58.39;101020.19;5022419;28;20041;-71
2021/03/31 02:03:01;;;;;;;34.80;20.17;;;;;;;10.00;58.17;101017.03;5021707;28;20026;-71
2021/03/31 02:05:29;;;;;;;36.38;20.98;;;;;;;9.58;58.95;101017.78;5021761;28;20034;-65
2021/03/31 02:07:55;;;;;;;38.50;21.05;;;;;;;9.52;59.12;101012.16;5021477;28;20025;-71
2021/03/31 02:10:22;;;;;;;34.90;18.40;;;;;;;9.49;57.99;101029.09;5022036;28;20029;-66
2021/03/31 02:12:48;;;;;;;37.83;20.35;;;;;;;9.28;59.31;101025.50;5021413;28;20036;-66
2021/03/31 02:15:19;;;;;;;37.25;20.85;;;;;;;9.25;59.00;101021.31;5021672;28;20243;-71
2021/03/31 02:17:46;;;;;;;40.78;20.23;;;;;;;9.24;58.82;101032.00;5022898;28;20029;-65
2021/03/31 02:20:16;;;;;;;48.50;21.95;;;;;;;9.18;59.56;101028.06;5022619;28;20220;-71
2021/03/31 02:22:42;;;;;;;34.50;20.02;;;;;;;9.03;60.98;101023.97;5020836;28;20030;-71
2021/03/31 02:25:10;;;;;;;33.05;19.67;;;;;;;9.15;60.33;101027.44;5020482;28;20053;-65
2021/03/31 02:27:37;;;;;;;33.25;19.90;;;;;;;9.07;60.25;101020.13;5021919;28;20057;-65
2021/03/31 02:30:04;;;;;;;41.28;21.45;;;;;;;9.11;60.68;101021.56;5021209;28;20041;-66
2021/03/31 02:32:30;;;;;;;36.70;20.17;;;;;;;9.02;61.22;101032.88;5022257;28;20140;-66
2021/03/31 02:34:58;;;;;;;37.95;21.73;;;;;;;8.90;61.53;101032.03;5020928;28;20033;-71
2021/03/31 02:37:24;;;;;;;32.20;20.73;;;;;;;9.07;61.41;101029.84;5023349;28;20045;-70
2021/03/31 02:39:52;;;;;;;35.47;20.70;;;;;;;9.17;60.76;101029.00;5021749;28;20034;-66
2021/03/31 02:42:20;;;;;;;48.67;22.70;;;;;;;9.10;60.71;101021.69;5021023;28;20037;-72
2021/03/31 02:44:48;;;;;;;58.03;24.85;;;;;;;9.17;60.96;101026.38;5021306;28;20091;-72
2021/03/31 02:47:16;;;;;;;44.75;22.05;;;;;;;9.35;60.37;101031.16;5022636;28;20030;-73
2021/03/31 02:49:46;;;;;;;40.15;22.92;;;;;;;9.48;60.09;101029.22;5021519;28;20365;-68
2021/03/31 02:52:12;;;;;;;41.40;22.70;;;;;;;9.62;59.45;101036.03;5021082;28;20204;-68
2021/03/31 02:54:39;;;;;;;35.72;20.83;;;;;;;9.64;58.77;101020.91;5027876;28;20075;-68
2021/03/31 02:57:06;;;;;;;32.47;20.40;;;;;;;9.76;58.51;101038.41;5027261;28;20116;-66
2021/03/31 02:59:32;;;;;;;37.08;19.38;;;;;;;9.63;58.51;101028.00;5034642;28;20252;-65
2021/03/31 03:01:57;;;;;;;33.85;19.35;;;;;;;9.49;59.14;101033.56;5025192;28;20057;-66
2021/03/31 03:04:23;;;;;;;35.53;19.50;;;;;;;9.29;59.67;101035.97;5042030;28;20052;-67
2021/03/31 03:06:49;;;;;;;47.80;22.08;;;;;;;9.18;60.26;101030.69;5025335;28;20026;-71
2021/03/31 03:09:16;;;;;;;140.45;57.85;;;;;;;9.24;60.61;101017.00;5021249;28;20068;-66
2021/03/31 03:11:41;;;;;;;42.28;24.40;;;;;;;9.16;60.45;101029.97;5020241;28;20027;-66
2021/03/31 03:14:08;;;;;;;48.53;23.65;;;;;;;9.32;59.87;101028.75;5021674;28;20330;-72
2021/03/31 03:16:34;;;;;;;43.50;24.13;;;;;;;9.24;60.11;101009.06;5020854;28;20380;-67
2021/03/31 03:19:00;;;;;;;49.03;25.02;;;;;;;9.33;60.23;101018.06;5020027;28;20030;-65
2021/03/31 03:21:27;;;;;;;26.65;15.43;;;;;;;9.30;55.29;101023.59;5020695;28;20021;-65
2021/03/31 03:23:55;;;;;;;33.92;19.23;;;;;;;9.02;59.17;101030.22;5020641;28;20044;-71
2021/03/31 03:26:21;;;;;;;44.50;20.63;;;;;;;9.10;60.08;101022.53;5023514;28;20033;-71
2021/03/31 03:28:48;;;;;;;56.08;24.15;;;;;;;9.11;58.36;101024.22;5025247;28;20040;-71
2021/03/31 03:31:14;;;;;;;38.58;20.98;;;;;;;9.36;57.13;101024.91;5026750;28;20026;-66
2021/03/31 03:33:40;;;;;;;37.33;20.33;;;;;;;9.45;57.20;101022.38;5028720;28;20093;-65
2021/03/31 03:36:07;;;;;;;43.50;19.92;;;;;;;9.36;58.13;101027.53;5026506;28;20034;-71
2021/03/31 03:38:34;;;;;;;45.33;24.08;;;;;;;9.59;57.88;101026.56;5025098;28;20346;-66
2021/03/31 03:41:26;;;;;;;52.15;26.63;;;;;;;9.65;57.76;101026.06;5025358;28;20026;-66
2021/03/31 03:43:55;;;;;;;50.05;24.25;;;;;;;9.67;57.74;101018.00;5024468;28;20065;-69
2021/03/31 03:46:22;;;;;;;37.80;19.92;;;;;;;9.97;56.34;101019.94;5023980;28;20030;-69
2021/03/31 03:48:47;;;;;;;30.85;19.27;;;;;;;10.05;55.64;101015.69;5024716;28;20026;-69
2021/03/31 03:51:13;;;;;;;36.22;18.70;;;;;;;10.16;55.08;101025.38;5024822;28;20366;-68
2021/03/31 03:53:39;;;;;;;41.40;19.35;;;;;;;10.08;54.94;101025.16;5023456;28;20049;-73
2021/03/31 03:56:10;;;;;;;35.40;18.83;;;;;;;10.07;55.34;101028.78;5024913;28;20115;-73
2021/03/31 03:58:36;;;;;;;33.28;18.38;;;;;;;10.11;55.18;101030.22;5024354;28;20112;-72
2021/03/31 04:01:01;;;;;;;33.90;17.80;;;;;;;10.07;55.11;101029.63;5023914;28;20074;-68
2021/03/31 04:03:27;;;;;;;34.75;18.65;;;;;;;9.81;55.84;101041.53;5024186;28;20101;-73
2021/03/31 04:05:52;;;;;;;35.55;19.77;;;;;;;9.54;57.19;101028.72;5024720;28;20037;-68
2021/03/31 04:08:18;;;;;;;33.17;20.10;;;;;;;9.79;56.17;101036.34;5023925;28;20108;-68
2021/03/31 04:10:48;;;;;;;40.78;19.65;;;;;;;9.88;55.81;101029.47;5023396;28;20026;-68
2021/03/31 04:13:13;;;;;;;41.05;20.65;;;;;;;9.84;55.91;101042.09;5025214;28;20025;-66
2021/03/31 04:15:43;;;;;;;34.85;20.40;;;;;;;9.89;56.22;101041.72;5023787;28;20045;-68
2021/03/31 04:18:11;;;;;;;41.05;25.42;;;;;;;9.85;56.53;101049.06;5023716;28;20112;-68
2021/03/31 04:20:37;;;;;;;44.28;27.40;;;;;;;9.89;56.28;101045.22;5024753;28;20326;-68
2021/03/31 04:23:02;;;;;;;65.28;32.00;;;;;;;9.72;56.65;101045.75;5023123;28;20050;-73
2021/03/31 04:25:28;;;;;;;64.50;37.15;;;;;;;9.75;56.74;101039.38;5023833;28;20092;-66
2021/03/31 04:27:57;;;;;;;64.57;35.60;;;;;;;9.59;57.41;101051.19;5023304;28;20251;-66
2021/03/31 04:30:24;;;;;;;81.88;41.90;;;;;;;9.21;58.53;101046.31;5023526;28;20089;-71
2021/03/31 04:32:50;;;;;;;73.38;38.58;;;;;;;9.15;59.68;101057.34;5024350;28;20316;-74
2021/03/31 04:35:18;;;;;;;65.78;36.60;;;;;;;9.25;59.33;101038.97;5023579;28;20042;-68
2021/03/31 04:37:44;;;;;;;69.32;38.53;;;;;;;9.45;58.80;101048.81;5022601;28;20029;-73
2021/03/31 04:40:15;;;;;;;61.22;34.42;;;;;;;9.62;58.60;101049.28;5023212;28;20236;-73
2021/03/31 04:42:41;;;;;;;61.60;35.50;;;;;;;9.72;58.15;101050.19;5024617;28;20034;-73
2021/03/31 04:45:08;;;;;;;62.88;34.42;;;;;;;9.86;58.03;101049.91;5023116;28;20052;-74
2021/03/31 04:47:35;;;;;;;62.17;35.78;;;;;;;9.93;58.01;101046.66;5023398;28;20330;-74
2021/03/31 04:50:01;;;;;;;64.85;36.50;;;;;;;10.02;58.07;101045.03;5024014;28;20034;-67
2021/03/31 04:52:28;;;;;;;60.53;33.97;;;;;;;10.00;57.91;101062.84;5022307;28;20032;-68
2021/03/31 04:54:54;;;;;;;59.60;33.92;;;;;;;10.11;56.80;101059.31;5022898;28;20105;-72
2021/03/31 04:57:19;;;;;;;56.38;27.67;;;;;;;10.09;56.58;101051.50;5023122;28;20351;-73
2021/03/31 04:59:45;;;;;;;50.67;27.58;;;;;;;10.28;55.79;101057.94;5022669;28;20041;-67
2021/03/31 05:02:10;;;;;;;44.92;24.13;;;;;;;10.32;55.16;101057.56;5023682;28;20044;-68
2021/03/31 05:04:35;;;;;;;53.00;24.48;;;;;;;10.26;55.61;101066.03;5022326;28;20181;-68
2021/03/31 05:07:01;;;;;;;46.53;24.35;;;;;;;10.33;55.49;101063.69;5023977;28;20081;-66
2021/03/31 05:09:26;;;;;;;43.70;24.27;;;;;;;10.36;55.60;101066.94;5023323;28;20097;-70
2021/03/31 05:11:52;;;;;;;46.30;24.00;;;;;;;10.50;54.80;101068.44;5026374;28;20116;-70
2021/03/31 05:14:17;;;;;;;49.00;23.60;;;;;;;10.60;54.48;101069.34;5030635;28;20037;-71
2021/03/31 05:16:43;;;;;;;49.03;27.00;;;;;;;10.58;54.50;101055.41;5036894;28;20411;-65
2021/03/31 05:19:08;;;;;;;60.38;26.38;;;;;;;10.38;54.71;101075.59;5026146;28;20026;-71
2021/03/31 05:21:34;;;;;;;59.00;26.80;;;;;;;10.67;54.76;101074.97;5037972;28;20036;-72
2021/03/31 05:23:59;;;;;;;59.25;27.15;;;;;;;10.66;54.96;101076.78;5034872;28;20108;-71
2021/03/31 05:26:24;;;;;;;64.40;29.30;;;;;;;10.85;54.58;101087.50;5037133;28;20288;-66
2021/03/31 05:28:50;;;;;;;60.85;28.42;;;;;;;10.94;54.45;101071.78;5038553;28;20029;-72
2021/03/31 05:31:15;;;;;;;51.47;27.83;;;;;;;11.22;54.11;101086.97;5042018;28;20041;-65
2021/03/31 05:33:41;;;;;;;49.47;23.40;;;;;;;11.53;54.08;101085.16;5037915;28;20037;-71
2021/03/31 05:36:09;;;;;;;46.10;23.85;;;;;;;11.60;53.21;101083.63;5041251;28;20198;-66
2021/03/31 05:38:34;;;;;;;48.60;24.77;;;;;;;11.78;52.68;101089.13;5039630;28;20029;-65
2021/03/31 05:41:00;;;;;;;48.45;24.65;;;;;;;11.89;52.30;101078.41;5042061;28;20028;-66
2021/03/31 05:43:25;;;;;;;48.28;24.33;;;;;;;11.87;51.78;101084.81;5040653;28;20112;-71
2021/03/31 05:45:55;;;;;;;55.42;28.67;;;;;;;12.05;51.86;101085.81;5041596;28;20040;-66
2021/03/31 05:48:22;;;;;;;60.65;28.35;;;;;;;12.10;51.63;101083.59;5039340;28;20045;-71
2021/03/31 05:50:47;;;;;;;70.53;30.67;;;;;;;12.21;51.70;101074.63;5039624;28;20106;-66
2021/03/31 05:53:13;;;;;;;78.70;31.83;;;;;;;12.37;51.23;101082.88;5039539;28;20496;-71
2021/03/31 05:55:38;;;;;;;62.15;28.90;;;;;;;12.73;49.48;101081.31;5041251;28;20044;-72
2021/03/31 05:58:05;;;;;;;41.08;21.85;;;;;;;12.83;47.99;101086.59;5041078;28;20109;-71
2021/03/31 06:00:32;;;;;;;31.67;18.95;;;;;;;12.97;46.16;101086.16;5032658;28;20021;-71
2021/03/31 06:03:03;;;;;;;42.80;21.50;;;;;;;13.14;46.09;101092.53;5046958;28;20424;-65
2021/03/31 06:05:31;;;;;;;36.95;18.95;;;;;;;13.34;44.03;101083.50;5060088;28;20220;-71
2021/03/31 06:07:56;;;;;;;32.92;17.95;;;;;;;13.44;43.32;101078.97;5041647;28;20215;-71
2021/03/31 06:10:23;;;;;;;26.88;16.63;;;;;;;13.71;42.52;101079.00;5031564;28;20029;-71
2021/03/31 06:12:53;;;;;;;27.45;16.33;;;;;;;13.64;39.76;101085.91;5039090;28;20025;-66
2021/03/31 06:15:31;;;;;;;25.27;15.93;;;;;;;13.96;40.62;101071.25;5039818;28;20025;-71
2021/03/31 06:18:00;;;;;;;22.13;14.05;;;;;;;14.42;38.42;101072.84;5031055;28;20100;-66
2021/03/31 06:20:46;;;;;;;25.33;14.85;;;;;;;14.55;38.30;101075.13;5031182;28;20030;-66
2021/03/31 06:26:19;;;;;;;23.60;12.27;;;;;;;15.26;35.20;101077.56;5036501;28;20029;-71
2021/03/31 06:28:55;;;;;;;24.92;12.55;;;;;;;15.45;33.74;101077.31;5027622;28;20034;-72
2021/03/31 06:31:21;;;;;;;21.30;12.70;;;;;;;15.52;34.10;101072.16;5031629;28;20392;-66
2021/03/31 06:33:48;;;;;;;22.00;12.45;;;;;;;15.39;34.22;101077.13;5032481;28;20032;-66
2021/03/31 06:36:18;;;;;;;22.13;11.57;;;;;;;15.36;34.03;101072.94;5038118;28;20052;-66
2021/03/31 06:38:50;;;;;;;19.75;12.07;;;;;;;15.75;32.89;101065.28;5034861;28;20304;-66
2021/03/31 06:41:39;;;;;;;20.38;12.27;;;;;;;16.11;32.83;101070.34;5029450;28;20044;-66
2021/03/31 06:44:26;;;;;;;18.58;11.23;;;;;;;15.68;33.12;101063.44;5029779;28;20041;-71
2021/03/31 06:46:58;;;;;;;20.63;12.52;;;;;;;15.61;32.52;101065.91;5029053;28;20032;-71
2021/03/31 06:49:23;;;;;;;21.13;12.02;;;;;;;15.33;32.27;101066.09;5030799;28;20029;-66
2021/03/31 06:51:49;;;;;;;21.67;12.80;;;;;;;15.55;32.88;101064.66;5030071;28;20021;-66
2021/03/31 06:54:22;;;;;;;23.35;11.70;;;;;;;15.85;31.50;101063.31;5027640;28;20034;-66
2021/03/31 06:56:56;;;;;;;23.35;12.95;;;;;;;15.81;32.09;101066.47;5032145;28;20043;-71
2021/03/31 06:59:29;;;;;;;18.10;10.25;;;;;;;15.74;31.43;101066.28;5025368;28;20056;-70
2021/03/31 07:01:56;;;;;;;29.50;12.23;;;;;;;15.91;31.62;101056.47;5030520;28;20026;-66
2021/03/31 07:04:23;;;;;;;25.90;13.07;;;;;;;15.84;32.54;101047.44;5030700;28;20046;-71
2021/03/31 07:07:02;;;;;;;21.08;12.60;;;;;;;16.15;31.61;101055.66;5032542;28;20026;-72
2021/03/31 07:09:29;;;;;;;24.00;12.77;;;;;;;16.39;31.84;101057.50;5040117;28;20026;-71
2021/03/31 07:11:54;;;;;;;20.23;10.43;;;;;;;16.67;30.57;101050.00;5039317;28;20037;-71
2021/03/31 07:14:21;;;;;;;20.98;11.65;;;;;;;16.58;30.40;101060.66;5030893;28;20029;-71
2021/03/31 07:16:47;;;;;;;19.17;10.93;;;;;;;16.40;30.73;101054.66;5031135;28;20013;-71
2021/03/31 07:19:14;;;;;;;20.58;11.30;;;;;;;16.18;30.79;101058.00;5030087;28;20025;-70
2021/03/31 07:21:40;;;;;;;18.52;11.40;;;;;;;15.86;31.59;101048.94;5031666;28;20026;-72
2021/03/31 07:24:06;;;;;;;19.42;12.65;;;;;;;15.67;33.11;101059.94;5032300;28;20053;-71
2021/03/31 07:26:33;;;;;;;19.40;11.52;;;;;;;15.59;32.00;101052.69;5030698;28;20076;-66
2021/03/31 07:28:58;;;;;;;18.92;9.25;;;;;;;15.76;30.86;101052.78;5028034;28;20306;-70
2021/03/31 07:31:28;;;;;;;18.15;9.65;;;;;;;15.98;31.63;101045.97;5030305;28;20025;-66
2021/03/31 07:34:11;;;;;;;11.48;6.10;;;;;;;15.88;27.73;101051.47;5030025;28;20021;-66
2021/03/31 07:36:42;;;;;;;8.18;5.20;;;;;;;16.10;26.47;101050.81;5031718;28;20193;-71
2021/03/31 07:39:08;;;;;;;8.23;5.47;;;;;;;16.24;25.90;101041.28;5030444;28;20101;-71
2021/03/31 07:41:37;;;;;;;13.32;6.05;;;;;;;16.33;26.31;101039.47;5034096;28;20323;-71
2021/03/31 07:44:05;;;;;;;8.57;5.90;;;;;;;16.15;26.03;101044.97;5031144;28;20037;-66
2021/03/31 07:46:36;;;;;;;8.27;5.50;;;;;;;16.11;27.20;101036.44;5031691;28;20128;-66
2021/03/31 07:49:03;;;;;;;9.00;5.70;;;;;;;16.22;26.77;101040.63;5032907;28;20029;-71
2021/03/31 07:51:30;;;;;;;9.02;5.40;;;;;;;16.47;26.79;101038.78;5039244;28;20036;-65
2021/03/31 07:53:58;;;;;;;11.30;5.60;;;;;;;16.32;26.00;101046.66;5038547;28;20087;-71
2021/03/31 07:56:39;;;;;;;10.82;5.57;;;;;;;16.85;26.36;101048.81;5037463;28;20021;-66
2021/03/31 07:59:05;;;;;;;8.50;5.25;;;;;;;16.75;26.51;101047.31;5038489;28;20029;-70
2021/03/31 08:01:51;;;;;;;7.47;5.20;;;;;;;15.98;26.91;101046.81;5036491;28;20330;-70
2021/03/31 08:04:19;;;;;;;7.68;4.88;;;;;;;16.53;25.26;101041.63;5038868;28;20251;-66
2021/03/31 08:06:46;;;;;;;11.73;6.25;;;;;;;17.03;24.75;101032.53;5038707;28;20084;-66
2021/03/31 08:09:21;;;;;;;8.80;5.10;;;;;;;17.15;26.22;101049.03;5039022;28;20037;-66
2021/03/31 08:11:53;;;;;;;7.82;5.00;;;;;;;16.77;24.94;101032.78;5041130;28;20033;-71
2021/03/31 08:14:40;;;;;;;10.40;5.68;;;;;;;16.60;25.87;101026.56;5060549;28;20039;-71
2021/03/31 08:17:11;;;;;;;6.80;5.25;;;;;;;16.86;24.12;101029.06;5060909;28;20382;-70
2021/03/31 08:19:44;;;;;;;8.57;5.22;;;;;;;17.25;23.86;101025.56;5064169;28;20064;-72
2021/03/31 08:22:38;;;;;;;8.02;5.70;;;;;;;17.51;23.73;101025.28;5061060;28;20032;-67
2021/03/31 08:25:26;;;;;;;7.65;4.93;;;;;;;18.03;23.67;101014.78;5057225;28;20285;-72
2021/03/31 08:27:56;;;;;;;10.00;5.53;;;;;;;18.38;23.38;101015.13;5061172;28;20268;-67
2021/03/31 08:30:24;;;;;;;8.65;5.18;;;;;;;18.07;22.67;101008.03;5057948;28;20040;-71
2021/03/31 08:32:49;;;;;;;7.65;4.88;;;;;;;17.36;24.22;101014.47;5060945;28;20056;-66
2021/03/31 08:35:16;;;;;;;7.18;4.47;;;;;;;17.39;23.69;101016.81;5060332;28;20343;-66
2021/03/31 08:37:43;;;;;;;26.40;5.88;;;;;;;17.33;23.32;101012.16;5060416;28;20393;-66
2021/03/31 08:40:09;;;;;;;11.82;4.30;;;;;;;17.07;24.37;101001.72;5059705;28;20485;-71
2021/03/31 08:42:35;;;;;;;6.05;4.03;;;;;;;16.14;23.74;101000.53;5061002;28;20040;-71
2021/03/31 08:45:04;;;;;;;6.03;4.10;;;;;;;15.86;23.95;100984.84;5055368;28;20348;-66
2021/03/31 08:47:31;;;;;;;6.95;4.30;;;;;;;15.74;24.29;101002.19;5040596;28;20086;-66
2021/03/31 08:50:00;;;;;;;5.57;4.00;;;;;;;15.84;24.47;100986.84;5040984;28;20032;-74
2021/03/31 08:52:32;;;;;;;9.02;5.90;;;;;;;15.77;26.04;100993.84;5042456;28;20025;-71
2021/03/31 08:54:58;;;;;;;7.32;4.47;;;;;;;15.47;26.22;100994.41;5040937;28;20033;-71
2021/03/31 08:57:27;;;;;;;8.13;4.38;;;;;;;15.35;25.43;100988.53;5041451;28;20044;-71
2021/03/31 08:59:56;;;;;;;7.88;4.55;;;;;;;15.47;26.21;100976.56;5040241;28;20140;-71
2021/03/31 09:02:24;;;;;;;8.02;4.70;;;;;;;15.74;24.67;100972.00;5041687;28;20022;-66
2021/03/31 09:04:50;;;;;;;5.93;3.85;;;;;;;16.19;24.43;100974.16;5041249;28;20067;-66
2021/03/31 09:07:16;;;;;;;6.60;4.05;;;;;;;16.18;23.66;100972.50;5042459;28;20041;-70
2021/03/31 09:09:43;;;;;;;6.15;3.92;;;;;;;16.21;24.32;100967.63;5041899;28;20378;-66
2021/03/31 09:12:14;;;;;;;4.90;3.42;;;;;;;16.52;25.72;100964.25;5041940;28;20063;-71
2021/03/31 09:14:51;;;;;;;15.00;5.78;;;;;;;16.89;24.66;100959.16;5040335;28;20095;-71
2021/03/31 09:17:22;;;;;;;7.72;3.95;;;;;;;16.58;25.22;100959.03;5042083;28;20037;-71
2021/03/31 09:19:52;;;;;;;9.00;3.97;;;;;;;15.73;25.23;100956.97;5040685;28;20041;-66
2021/03/31 09:22:19;;;;;;;7.35;3.95;;;;;;;15.72;25.57;100957.97;5042156;28;20033;-66
2021/03/31 09:24:59;;;;;;;9.38;4.60;;;;;;;15.79;25.51;100946.47;5041369;28;20045;-71
2021/03/31 09:27:27;;;;;;;8.15;3.72;;;;;;;16.18;25.41;100951.09;5041349;28;20033;-66
2021/03/31 09:29:55;;;;;;;8.38;4.00;;;;;;;16.34;24.44;100950.25;5034698;28;20026;-69
2021/03/31 09:32:43;;;;;;;7.10;3.95;;;;;;;16.53;24.89;100957.88;5040686;28;20025;-72
2021/03/31 09:35:11;;;;;;;4.55;3.30;;;;;;;16.28;23.44;100947.25;5040862;28;20204;-72
2021/03/31 09:37:42;;;;;;;5.78;3.80;;;;;;;16.06;24.69;100933.75;5041669;28;20041;-66
2021/03/31 09:40:08;;;;;;;6.47;3.63;;;;;;;15.90;25.06;100931.94;5040388;28;20070;-72
2021/03/31 09:42:37;;;;;;;5.10;3.40;;;;;;;15.64;25.04;100932.94;5042075;28;20029;-66
2021/03/31 09:45:07;;;;;;;6.55;3.63;;;;;;;15.59;25.02;100916.53;5039527;28;20117;-72
2021/03/31 09:47:38;;;;;;;5.70;3.40;;;;;;;15.76;25.69;100924.59;5041670;28;20046;-72
2021/03/31 09:50:10;;;;;;;5.53;3.60;;;;;;;15.81;24.82;100909.72;5040619;28;20343;-71
2021/03/31 09:52:38;;;;;;;8.30;3.95;;;;;;;15.54;26.12;100910.84;5041806;28;20041;-66
2021/03/31 09:55:10;;;;;;;5.65;3.92;;;;;;;15.88;24.64;100913.41;5038971;28;20037;-66
2021/03/31 09:57:37;;;;;;;12.57;6.88;;;;;;;16.18;24.18;100911.03;5041986;28;20298;-67
2021/03/31 10:00:16;;;;;;;9.68;4.22;;;;;;;16.29;24.77;100902.66;5040295;28;20219;-70
2021/03/31 10:02:43;;;;;;;7.65;3.30;;;;;;;16.15;25.14;100906.84;5041073;28;20022;-65
2021/03/31 10:05:14;;;;;;;3.40;2.78;;;;;;;16.25;24.83;100899.47;5040226;28;20056;-70
2021/03/31 10:07:39;;;;;;;5.68;3.22;;;;;;;16.40;24.41;100898.78;5041544;28;20071;-65
2021/03/31 10:10:07;;;;;;;6.82;4.32;;;;;;;16.64;25.59;100897.84;5040860;28;20096;-69
2021/03/31 10:12:34;;;;;;;46.38;5.47;;;;;;;16.50;25.40;100891.41;5041542;28;20053;-70
2021/03/31 10:15:03;;;;;;;8.52;3.55;;;;;;;16.17;23.44;100875.44;5040725;28;20033;-70
2021/03/31 10:17:30;;;;;;;7.05;3.50;;;;;;;16.18;23.96;100873.63;5041164;28;20021;-65
2021/03/31 10:20:29;;;;;;;8.90;3.17;;;;;;;16.49;23.98;100879.03;5040580;28;20215;-70
2021/03/31 10:22:54;;;;;;;17.17;7.28;;;;;;;16.49;24.76;100868.34;5036791;28;20033;-66
2021/03/31 10:25:28;;;;;;;37.63;14.38;;;;;;;16.61;24.61;100856.25;5039154;28;20071;-65
2021/03/31 10:27:55;;;;;;;31.13;13.60;;;;;;;16.71;24.78;100853.44;5041138;28;20061;-65
2021/03/31 10:30:29;;;;;;;25.40;9.98;;;;;;;16.91;24.75;100852.81;5040046;28;20036;-65
2021/03/31 10:32:55;;;;;;;25.30;9.80;;;;;;;16.98;24.80;100844.91;5041300;28;20247;-70
2021/03/31 10:35:44;;;;;;;9.73;3.75;;;;;;;17.06;23.61;100838.69;5039696;28;20094;-66
2021/03/31 10:38:18;;;;;;;8.07;4.35;;;;;;;17.06;23.21;100841.34;5041223;28;20045;-66
2021/03/31 10:41:09;;;;;;;7.47;3.70;;;;;;;17.14;23.04;100826.06;5042566;28;20022;-70
2021/03/31 10:49:13;;;;;;;6.18;3.70;;;;;;;16.59;23.72;100821.66;5039743;28;20067;-68
2021/03/31 10:54:13;;;;;;;8.95;3.85;;;;;;;16.73;24.16;100812.13;5040131;28;20033;-70
2021/03/31 10:56:39;;;;;;;10.35;4.05;;;;;;;16.82;23.93;100812.91;5039847;28;20184;-65
2021/03/31 10:59:05;;;;;;;5.18;3.08;;;;;;;16.86;24.53;100809.72;5040160;28;20088;-66
2021/03/31 11:01:32;;;;;;;7.10;3.67;;;;;;;16.77;24.61;100796.56;5041141;28;20033;-65
2021/03/31 11:03:57;;;;;;;5.88;3.65;;;;;;;16.83;23.79;100791.34;5039127;28;20053;-70
2021/03/31 11:06:24;;;;;;;9.20;3.38;;;;;;;16.81;25.12;100793.34;5031401;28;20041;-70
2021/03/31 11:08:51;;;;;;;7.72;3.63;;;;;;;16.68;24.47;100795.78;5030791;28;20117;-65
2021/03/31 11:11:16;;;;;;;5.82;3.00;;;;;;;16.92;24.86;100795.63;5031445;28;20233;-66
2021/03/31 11:13:42;;;;;;;8.13;3.42;;;;;;;16.85;26.01;100789.31;5031157;28;20215;-71
2021/03/31 11:16:08;;;;;;;5.25;3.33;;;;;;;17.05;23.12;100784.31;5032879;28;20033;-65
2021/03/31 11:26:16;;;;;;;7.97;3.83;;;;;;;16.56;24.50;100763.19;5039407;28;20118;-70
2021/03/31 11:28:42;;;;;;;31.65;4.20;;;;;;;16.70;23.46;100761.66;5036933;28;20045;-70
2021/03/31 11:31:08;;;;;;;5.22;2.95;;;;;;;16.80;23.00;100761.44;5041388;28;20028;-71
2021/03/31 11:33:34;;;;;;;7.28;3.10;;;;;;;16.61;23.58;100746.63;5037511;28;20030;-66
2021/03/31 11:36:00;;;;;;;8.88;3.28;;;;;;;16.82;22.47;100757.56;5029363;28;20323;-71
2021/03/31 11:38:26;;;;;;;5.82;3.15;;;;;;;16.88;23.37;100750.69;5031136;28;20028;-71
2021/03/31 11:40:51;;;;;;;8.90;4.32;;;;;;;16.33;24.25;100751.63;5030048;28;20040;-66
2021/03/31 11:43:18;;;;;;;3.97;2.88;;;;;;;16.10;23.61;100750.72;5039380;28;20021;-72